sensor_id;sensor_type;location;lat;lon;timestamp;pressure;altitude;pressure_sealevel;temperature;humidity
20027;BME280;10174;42.688;23.344;2023-02-20T00:00:34;95616.88;;;10.19;57.21
20027;BME280;10174;42.688;23.344;2023-02-20T00:03:01;95610.47;;;10.20;57.32
20027;BME280;10174;42.688;23.344;2023-02-20T00:05:27;95628.38;;;10.14;58.08
20027;BME280;10174;42.688;23.344;2023-02-20T00:07:52;95608.00;;;9.91;58.25
20027;BME280;10174;42.688;23.344;2023-02-20T00:10:18;95587.28;;;9.87;58.26
20027;BME280;10174;42.688;23.344;2023-02-20T00:12:43;95626.63;;;10.03;58.62
20027;BME280;10174;42.688;23.344;2023-02-20T00:15:13;95614.41;;;9.90;59.44
20027;BME280;10174;42.688;23.344;2023-02-20T00:17:39;95522.81;;;9.32;59.11
20027;BME280;10174;42.688;23.344;2023-02-20T00:20:04;95611.78;;;9.95;59.10
20027;BME280;10174;42.688;23.344;2023-02-20T00:22:30;95610.97;;;9.95;59.41
20027;BME280;10174;42.688;23.344;2023-02-20T00:24:56;95618.38;;;9.83;59.42
20027;BME280;10174;42.688;23.344;2023-02-20T00:27:21;95617.56;;;9.82;59.84
20027;BME280;10174;42.688;23.344;2023-02-20T00:29:46;95621.78;;;9.78;60.10
20027;BME280;10174;42.688;23.344;2023-02-20T00:32:12;95603.09;;;9.61;60.88
20027;BME280;10174;42.688;23.344;2023-02-20T00:34:38;95620.91;;;9.72;60.94
20027;BME280;10174;42.688;23.344;2023-02-20T00:37:03;95574.16;;;9.41;60.84
20027;BME280;10174;42.688;23.344;2023-02-20T00:39:31;95627.03;;;9.68;61.26
20027;BME280;10174;42.688;23.344;2023-02-20T00:41:56;95611.13;;;9.61;61.56
20027;BME280;10174;42.688;23.344;2023-02-20T00:44:23;95612.75;;;9.62;61.66
20027;BME280;10174;42.688;23.344;2023-02-20T00:46:49;95560.22;;;9.22;61.97
20027;BME280;10174;42.688;23.344;2023-02-20T00:49:14;95622.28;;;9.53;62.05
20027;BME280;10174;42.688;23.344;2023-02-20T00:51:40;95618.16;;;9.45;62.72
20027;BME280;10174;42.688;23.344;2023-02-20T00:54:05;95631.00;;;9.43;62.49
20027;BME280;10174;42.688;23.344;2023-02-20T00:56:30;95526.38;;;8.77;62.57
20027;BME280;10174;42.688;23.344;2023-02-20T00:58:56;95632.75;;;9.32;63.02
20027;BME280;10174;42.688;23.344;2023-02-20T01:01:22;95638.66;;;9.34;62.93
20027;BME280;10174;42.688;23.344;2023-02-20T01:03:47;95640.97;;;9.25;63.08
20027;BME280;10174;42.688;23.344;2023-02-20T01:06:13;95652.69;;;9.19;63.87
20027;BME280;10174;42.688;23.344;2023-02-20T01:08:38;95657.22;;;9.19;63.58
20027;BME280;10174;42.688;23.344;2023-02-20T01:11:04;95656.97;;;9.20;64.07
20027;BME280;10174;42.688;23.344;2023-02-20T01:13:29;95615.03;;;8.92;63.93
20027;BME280;10174;42.688;23.344;2023-02-20T01:15:55;95605.28;;;8.86;64.21
20027;BME280;10174;42.688;23.344;2023-02-20T01:18:20;95652.75;;;9.07;64.42
20027;BME280;10174;42.688;23.344;2023-02-20T01:20:46;95655.44;;;9.07;64.38
20027;BME280;10174;42.688;23.344;2023-02-20T01:23:11;95677.53;;;9.15;64.43
20027;BME280;10174;42.688;23.344;2023-02-20T01:25:36;95682.31;;;9.13;64.55
20027;BME280;10174;42.688;23.344;2023-02-20T01:28:02;95687.19;;;9.16;64.44
20027;BME280;10174;42.688;23.344;2023-02-20T01:30:27;95657.88;;;8.92;64.72
20027;BME280;10174;42.688;23.344;2023-02-20T01:32:53;95677.53;;;9.15;64.51
20027;BME280;10174;42.688;23.344;2023-02-20T01:35:18;95686.13;;;9.17;64.52
20027;BME280;10174;42.688;23.344;2023-02-20T01:37:44;95682.47;;;9.23;64.54
20027;BME280;10174;42.688;23.344;2023-02-20T01:40:15;95687.34;;;9.26;64.34
20027;BME280;10174;42.688;23.344;2023-02-20T01:42:41;95569.41;;;8.53;64.75
20027;BME280;10174;42.688;23.344;2023-02-20T01:45:26;95691.19;;;9.30;64.64
20027;BME280;10174;42.688;23.344;2023-02-20T01:47:53;95699.78;;;9.32;64.96
20027;BME280;10174;42.688;23.344;2023-02-20T01:50:24;95697.66;;;9.34;65.16
20027;BME280;10174;42.688;23.344;2023-02-20T01:52:54;95685.81;;;9.30;65.10
20027;BME280;10174;42.688;23.344;2023-02-20T01:55:26;95675.34;;;9.29;65.52
20027;BME280;10174;42.688;23.344;2023-02-20T01:57:58;95670.06;;;9.17;65.47
20027;BME280;10174;42.688;23.344;2023-02-20T02:00:25;95685.31;;;9.33;65.81
20027;BME280;10174;42.688;23.344;2023-02-20T02:02:55;95700.25;;;9.29;65.61
20027;BME280;10174;42.688;23.344;2023-02-20T02:05:22;95648.78;;;8.93;66.12
20027;BME280;10174;42.688;23.344;2023-02-20T02:07:48;95718.88;;;9.19;66.38
20027;BME280;10174;42.688;23.344;2023-02-20T02:10:16;95694.75;;;9.19;66.58
20027;BME280;10174;42.688;23.344;2023-02-20T02:12:46;95646.69;;;8.78;66.21
20027;BME280;10174;42.688;23.344;2023-02-20T02:15:18;95676.22;;;9.00;66.60
20027;BME280;10174;42.688;23.344;2023-02-20T02:34:53;95731.97;;;8.41;67.52
20027;BME280;10174;42.688;23.344;2023-02-20T02:37:32;95722.22;;;8.34;67.11
20027;BME280;10174;42.688;23.344;2023-02-20T02:40:06;95719.31;;;8.24;67.53
20027;BME280;10174;42.688;23.344;2023-02-20T02:48:07;95713.75;;;8.14;67.73
20027;BME280;10174;42.688;23.344;2023-02-20T02:50:37;95718.56;;;8.12;67.52
20027;BME280;10174;42.688;23.344;2023-02-20T02:53:06;95710.44;;;8.07;67.59
20027;BME280;10174;42.688;23.344;2023-02-20T02:55:32;95710.91;;;8.03;68.04
20027;BME280;10174;42.688;23.344;2023-02-20T02:58:01;95711.38;;;8.00;68.16
20027;BME280;10174;42.688;23.344;2023-02-20T03:00:36;95721.38;;;8.05;68.53
20027;BME280;10174;42.688;23.344;2023-02-20T03:03:17;95739.28;;;8.05;68.43
20027;BME280;10174;42.688;23.344;2023-02-20T03:05:49;95750.44;;;8.01;68.47
20027;BME280;10174;42.688;23.344;2023-02-20T03:08:55;95751.75;;;7.99;69.05
20027;BME280;10174;42.688;23.344;2023-02-20T03:11:24;95755.81;;;8.01;68.79
20027;BME280;10174;42.688;23.344;2023-02-20T03:13:57;95725.72;;;7.82;68.83
20027;BME280;10174;42.688;23.344;2023-02-20T03:17:08;95744.44;;;7.94;68.98
20027;BME280;10174;42.688;23.344;2023-02-20T03:19:45;95748.28;;;7.87;69.78
20027;BME280;10174;42.688;23.344;2023-02-20T03:22:33;95756.88;;;7.77;69.63
20027;BME280;10174;42.688;23.344;2023-02-20T03:25:09;95763.78;;;7.73;69.79
20027;BME280;10174;42.688;23.344;2023-02-20T03:27:43;95754.22;;;7.77;69.48
20027;BME280;10174;42.688;23.344;2023-02-20T03:30:44;95768.66;;;7.76;69.28
20027;BME280;10174;42.688;23.344;2023-02-20T03:33:16;95666.28;;;7.04;69.09
20027;BME280;10174;42.688;23.344;2023-02-20T03:36:05;95795.03;;;7.72;69.27
20027;BME280;10174;42.688;23.344;2023-02-20T03:39:13;95776.44;;;7.65;68.65
20027;BME280;10174;42.688;23.344;2023-02-20T03:42:00;95782.59;;;7.78;68.15
20027;BME280;10174;42.688;23.344;2023-02-20T03:44:46;95783.78;;;7.82;68.17
20027;BME280;10174;42.688;23.344;2023-02-20T03:47:13;95760.25;;;7.60;67.92
20027;BME280;10174;42.688;23.344;2023-02-20T03:49:42;95795.63;;;7.74;67.69
20027;BME280;10174;42.688;23.344;2023-02-20T03:52:09;95791.31;;;7.73;68.31
20027;BME280;10174;42.688;23.344;2023-02-20T03:54:35;95789.69;;;7.72;67.91
20027;BME280;10174;42.688;23.344;2023-02-20T03:57:11;95757.72;;;7.54;68.02
20027;BME280;10174;42.688;23.344;2023-02-20T03:59:47;95716.47;;;7.26;68.19
20027;BME280;10174;42.688;23.344;2023-02-20T04:02:41;95781.78;;;7.65;68.18
20027;BME280;10174;42.688;23.344;2023-02-20T04:05:13;95785.63;;;7.70;67.92
20027;BME280;10174;42.688;23.344;2023-02-20T04:08:11;95782.84;;;7.64;68.03
20027;BME280;10174;42.688;23.344;2023-02-20T04:10:39;95787.00;;;7.60;67.69
20027;BME280;10174;42.688;23.344;2023-02-20T04:13:07;95801.91;;;7.56;67.93
20027;BME280;10174;42.688;23.344;2023-02-20T04:15:34;95793.53;;;7.64;67.50
20027;BME280;10174;42.688;23.344;2023-02-20T04:18:08;95799.59;;;7.72;67.59
20027;BME280;10174;42.688;23.344;2023-02-20T04:20:34;95789.59;;;7.67;67.34
20027;BME280;10174;42.688;23.344;2023-02-20T04:23:15;95794.22;;;7.72;67.37
20027;BME280;10174;42.688;23.344;2023-02-20T04:25:42;95790.06;;;7.76;67.43
20027;BME280;10174;42.688;23.344;2023-02-20T04:28:09;95785.28;;;7.66;67.17
20027;BME280;10174;42.688;23.344;2023-02-20T04:30:35;95807.84;;;7.82;67.33
20027;BME280;10174;42.688;23.344;2023-02-20T04:33:01;95811.00;;;7.79;67.09
20027;BME280;10174;42.688;23.344;2023-02-20T04:35:26;95802.38;;;7.77;67.09
20027;BME280;10174;42.688;23.344;2023-02-20T04:37:52;95747.72;;;7.37;67.44
20027;BME280;10174;42.688;23.344;2023-02-20T04:40:20;95791.00;;;7.70;67.80
20027;BME280;10174;42.688;23.344;2023-02-20T04:42:45;95690.75;;;6.89;68.15
20027;BME280;10174;42.688;23.344;2023-02-20T04:45:11;95807.72;;;7.53;68.92
20027;BME280;10174;42.688;23.344;2023-02-20T04:47:37;95806.88;;;7.53;68.83
20027;BME280;10174;42.688;23.344;2023-02-20T04:50:03;95812.34;;;7.46;68.02
20027;BME280;10174;42.688;23.344;2023-02-20T04:52:28;95805.03;;;7.41;68.49
20027;BME280;10174;42.688;23.344;2023-02-20T04:54:53;95778.63;;;7.21;67.60
20027;BME280;10174;42.688;23.344;2023-02-20T04:57:19;95814.91;;;7.41;67.25
20027;BME280;10174;42.688;23.344;2023-02-20T04:59:44;95830.50;;;7.44;66.85
20027;BME280;10174;42.688;23.344;2023-02-20T05:02:10;95762.22;;;7.06;66.33
20027;BME280;10174;42.688;23.344;2023-02-20T05:04:35;95820.25;;;7.41;65.71
20027;BME280;10174;42.688;23.344;2023-02-20T05:07:01;95830.81;;;7.36;65.87
20027;BME280;10174;42.688;23.344;2023-02-20T05:09:26;95856.50;;;7.37;64.69
20027;BME280;10174;42.688;23.344;2023-02-20T05:11:52;95837.78;;;7.37;64.26
20027;BME280;10174;42.688;23.344;2023-02-20T05:14:19;95833.13;;;7.32;64.27
20027;BME280;10174;42.688;23.344;2023-02-20T05:16:45;95836.03;;;7.30;63.56
20027;BME280;10174;42.688;23.344;2023-02-20T05:19:11;95747.16;;;6.69;62.34
20027;BME280;10174;42.688;23.344;2023-02-20T05:21:36;95736.53;;;6.63;62.19
20027;BME280;10174;42.688;23.344;2023-02-20T05:24:21;95846.16;;;7.28;62.37
20027;BME280;10174;42.688;23.344;2023-02-20T05:26:48;95832.53;;;7.18;62.05
20027;BME280;10174;42.688;23.344;2023-02-20T05:29:13;95840.91;;;7.22;62.32
20027;BME280;10174;42.688;23.344;2023-02-20T05:31:39;95818.56;;;7.04;62.44
20027;BME280;10174;42.688;23.344;2023-02-20T05:34:05;95864.81;;;7.17;62.59
20027;BME280;10174;42.688;23.344;2023-02-20T05:36:31;95823.84;;;6.92;62.82
20027;BME280;10174;42.688;23.344;2023-02-20T05:38:56;95850.47;;;6.99;62.92
20027;BME280;10174;42.688;23.344;2023-02-20T05:41:21;95807.72;;;6.69;62.86
20027;BME280;10174;42.688;23.344;2023-02-20T05:43:47;95889.47;;;7.19;63.15
20027;BME280;10174;42.688;23.344;2023-02-20T05:46:13;95890.50;;;7.18;63.56
20027;BME280;10174;42.688;23.344;2023-02-20T05:48:39;95888.03;;;7.16;64.12
20027;BME280;10174;42.688;23.344;2023-02-20T05:51:04;95792.38;;;6.52;64.05
20027;BME280;10174;42.688;23.344;2023-02-20T05:53:30;95899.13;;;7.20;64.51
20027;BME280;10174;42.688;23.344;2023-02-20T05:55:56;95880.34;;;7.08;64.89
20027;BME280;10174;42.688;23.344;2023-02-20T05:58:22;95830.09;;;6.86;65.03
20027;BME280;10174;42.688;23.344;2023-02-20T06:00:48;95892.97;;;7.19;65.29
20027;BME280;10174;42.688;23.344;2023-02-20T06:03:14;95895.19;;;7.22;64.94
20027;BME280;10174;42.688;23.344;2023-02-20T06:05:40;95794.16;;;6.70;64.56
20027;BME280;10174;42.688;23.344;2023-02-20T06:08:06;95873.19;;;7.20;64.37
20027;BME280;10174;42.688;23.344;2023-02-20T06:10:31;95888.25;;;7.33;63.90
20027;BME280;10174;42.688;23.344;2023-02-20T06:12:57;95867.53;;;7.28;63.39
20027;BME280;10174;42.688;23.344;2023-02-20T06:15:23;95797.25;;;6.86;62.35
20027;BME280;10174;42.688;23.344;2023-02-20T06:17:48;95899.78;;;7.57;61.37
20027;BME280;10174;42.688;23.344;2023-02-20T06:20:14;95908.22;;;7.73;59.00
20027;BME280;10174;42.688;23.344;2023-02-20T06:22:39;95884.38;;;7.71;58.38
20027;BME280;10174;42.688;23.344;2023-02-20T06:25:05;95896.94;;;7.82;58.42
20027;BME280;10174;42.688;23.344;2023-02-20T06:27:30;95896.81;;;7.89;58.28
20027;BME280;10174;42.688;23.344;2023-02-20T06:29:56;95923.13;;;8.04;58.15
20027;BME280;10174;42.688;23.344;2023-02-20T06:32:21;95857.72;;;7.64;57.64
20027;BME280;10174;42.688;23.344;2023-02-20T06:34:47;95923.81;;;7.99;58.10
20027;BME280;10174;42.688;23.344;2023-02-20T06:37:12;95914.38;;;8.09;57.66
20027;BME280;10174;42.688;23.344;2023-02-20T06:39:38;95896.69;;;8.08;57.88
20027;BME280;10174;42.688;23.344;2023-02-20T06:42:05;95898.00;;;8.17;57.68
20027;BME280;10174;42.688;23.344;2023-02-20T06:44:30;95788.88;;;7.48;56.91
20027;BME280;10174;42.688;23.344;2023-02-20T06:46:58;95868.09;;;8.08;56.83
20027;BME280;10174;42.688;23.344;2023-02-20T06:49:23;95918.25;;;8.13;57.05
20027;BME280;10174;42.688;23.344;2023-02-20T06:51:52;95909.28;;;8.19;57.00
20027;BME280;10174;42.688;23.344;2023-02-20T06:54:18;95868.91;;;7.85;57.14
20027;BME280;10174;42.688;23.344;2023-02-20T06:56:46;95882.03;;;7.75;57.06
20027;BME280;10174;42.688;23.344;2023-02-20T06:59:12;95928.56;;;8.09;57.18
20027;BME280;10174;42.688;23.344;2023-02-20T07:01:40;95861.78;;;7.67;57.04
20027;BME280;10174;42.688;23.344;2023-02-20T07:04:08;95930.69;;;8.07;56.20
20027;BME280;10174;42.688;23.344;2023-02-20T07:06:37;95918.81;;;7.91;56.28
20027;BME280;10174;42.688;23.344;2023-02-20T07:09:03;95793.63;;;7.22;56.36
20027;BME280;10174;42.688;23.344;2023-02-20T07:11:28;95924.53;;;8.07;55.77
20027;BME280;10174;42.688;23.344;2023-02-20T07:13:54;95884.59;;;7.93;55.88
20027;BME280;10174;42.688;23.344;2023-02-20T07:16:19;95922.41;;;8.09;55.47
20027;BME280;10174;42.688;23.344;2023-02-20T07:18:44;95940.38;;;8.20;54.75
20027;BME280;10174;42.688;23.344;2023-02-20T07:21:10;95928.97;;;8.25;54.50
20027;BME280;10174;42.688;23.344;2023-02-20T07:23:35;95939.91;;;8.47;53.93
20027;BME280;10174;42.688;23.344;2023-02-20T07:26:01;95937.78;;;8.72;52.38
20027;BME280;10174;42.688;23.344;2023-02-20T07:28:26;95930.00;;;8.59;52.12
20027;BME280;10174;42.688;23.344;2023-02-20T07:30:51;95927.28;;;8.83;51.55
20027;BME280;10174;42.688;23.344;2023-02-20T07:33:17;95920.81;;;8.96;51.22
20027;BME280;10174;42.688;23.344;2023-02-20T07:35:43;95914.06;;;8.93;50.69
20027;BME280;10174;42.688;23.344;2023-02-20T07:38:09;95857.94;;;8.22;50.80
20027;BME280;10174;42.688;23.344;2023-02-20T07:40:34;95942.66;;;8.76;50.62
20027;BME280;10174;42.688;23.344;2023-02-20T07:43:00;95959.34;;;8.54;50.76
20027;BME280;10174;42.688;23.344;2023-02-20T07:45:25;95949.69;;;8.53;50.89
20027;BME280;10174;42.688;23.344;2023-02-20T07:47:51;95882.38;;;8.14;50.95
20027;BME280;10174;42.688;23.344;2023-02-20T07:50:17;95911.16;;;8.18;50.62
20027;BME280;10174;42.688;23.344;2023-02-20T07:52:44;95974.59;;;8.42;50.74
20027;BME280;10174;42.688;23.344;2023-02-20T07:55:13;95970.38;;;8.22;50.52
20027;BME280;10174;42.688;23.344;2023-02-20T07:57:39;95962.34;;;8.10;50.85
20027;BME280;10174;42.688;23.344;2023-02-20T08:00:05;95986.09;;;8.18;51.05
20027;BME280;10174;42.688;23.344;2023-02-20T08:02:31;95970.69;;;8.14;51.24
20027;BME280;10174;42.688;23.344;2023-02-20T08:04:56;95969.91;;;8.13;51.14
20027;BME280;10174;42.688;23.344;2023-02-20T08:07:21;95977.84;;;8.20;50.40
20027;BME280;10174;42.688;23.344;2023-02-20T08:09:47;95976.06;;;8.14;50.15
20027;BME280;10174;42.688;23.344;2023-02-20T08:12:12;95902.25;;;7.71;50.63
20027;BME280;10174;42.688;23.344;2023-02-20T08:14:38;95967.91;;;8.09;50.41
20027;BME280;10174;42.688;23.344;2023-02-20T08:17:03;95959.09;;;8.08;50.31
20027;BME280;10174;42.688;23.344;2023-02-20T08:19:29;95892.97;;;7.73;49.47
20027;BME280;10174;42.688;23.344;2023-02-20T08:21:54;95977.88;;;8.44;49.12
20027;BME280;10174;42.688;23.344;2023-02-20T08:24:19;95989.69;;;8.36;49.46
20027;BME280;10174;42.688;23.344;2023-02-20T08:26:46;95886.00;;;7.84;49.09
20027;BME280;10174;42.688;23.344;2023-02-20T08:29:13;95979.84;;;8.48;49.29
20027;BME280;10174;42.688;23.344;2023-02-20T08:31:39;95982.28;;;8.50;48.91
20027;BME280;10174;42.688;23.344;2023-02-20T08:34:04;95980.97;;;8.41;48.84
20027;BME280;10174;42.688;23.344;2023-02-20T08:36:30;95977.97;;;8.61;48.62
20027;BME280;10174;42.688;23.344;2023-02-20T08:38:55;95857.94;;;7.98;48.93
20027;BME280;10174;42.688;23.344;2023-02-20T08:41:21;95970.25;;;8.76;48.66
20027;BME280;10174;42.688;23.344;2023-02-20T08:43:47;95869.81;;;8.02;47.69
20027;BME280;10174;42.688;23.344;2023-02-20T08:46:12;95970.88;;;8.66;47.80
20027;BME280;10174;42.688;23.344;2023-02-20T08:48:38;95980.06;;;8.59;48.86
20027;BME280;10174;42.688;23.344;2023-02-20T08:51:05;95989.94;;;8.58;48.80
20027;BME280;10174;42.688;23.344;2023-02-20T08:53:31;95904.63;;;8.14;47.89
20027;BME280;10174;42.688;23.344;2023-02-20T08:55:57;95979.47;;;8.68;47.44
20027;BME280;10174;42.688;23.344;2023-02-20T08:58:23;95973.41;;;8.85;49.67
20027;BME280;10174;42.688;23.344;2023-02-20T09:00:49;95952.06;;;8.90;50.40
20027;BME280;10174;42.688;23.344;2023-02-20T09:03:15;95960.47;;;8.82;47.40
20027;BME280;10174;42.688;23.344;2023-02-20T09:05:41;95957.63;;;9.00;48.59
20027;BME280;10174;42.688;23.344;2023-02-20T09:08:07;95981.81;;;9.17;47.56
20027;BME280;10174;42.688;23.344;2023-02-20T09:10:33;95986.66;;;9.03;48.65
20027;BME280;10174;42.688;23.344;2023-02-20T09:12:58;95976.41;;;9.00;48.29
20027;BME280;10174;42.688;23.344;2023-02-20T09:15:24;95922.31;;;8.63;46.37
20027;BME280;10174;42.688;23.344;2023-02-20T09:17:51;95959.91;;;8.80;47.98
20027;BME280;10174;42.688;23.344;2023-02-20T09:20:18;95968.25;;;8.95;47.38
20027;BME280;10174;42.688;23.344;2023-02-20T09:22:45;95976.63;;;8.99;46.94
20027;BME280;10174;42.688;23.344;2023-02-20T09:25:11;95974.75;;;8.99;47.21
20027;BME280;10174;42.688;23.344;2023-02-20T09:27:37;95972.41;;;9.15;47.21
20027;BME280;10174;42.688;23.344;2023-02-20T09:30:03;95977.31;;;9.18;46.24
20027;BME280;10174;42.688;23.344;2023-02-20T09:32:29;95964.22;;;9.21;46.55
20027;BME280;10174;42.688;23.344;2023-02-20T09:34:54;95973.47;;;9.42;46.25
20027;BME280;10174;42.688;23.344;2023-02-20T09:37:19;95923.84;;;9.28;46.22
20027;BME280;10174;42.688;23.344;2023-02-20T09:39:45;95989.75;;;9.53;46.71
20027;BME280;10174;42.688;23.344;2023-02-20T09:45:09;95960.06;;;9.71;46.38
20027;BME280;10174;42.688;23.344;2023-02-20T09:47:58;95972.56;;;10.84;45.23
20027;BME280;10174;42.688;23.344;2023-02-20T09:50:50;95963.59;;;13.23;39.50
20027;BME280;10174;42.688;23.344;2023-02-20T09:53:29;95958.94;;;13.08;39.31
20027;BME280;10174;42.688;23.344;2023-02-20T09:55:57;95961.63;;;12.55;39.43
20027;BME280;10174;42.688;23.344;2023-02-20T10:01:08;95972.06;;;13.36;38.94
20027;BME280;10174;42.688;23.344;2023-02-20T10:03:50;95950.38;;;13.26;38.39
20027;BME280;10174;42.688;23.344;2023-02-20T10:06:18;95993.16;;;13.60;37.64
20027;BME280;10174;42.688;23.344;2023-02-20T10:08:47;95985.41;;;13.79;36.54
20027;BME280;10174;42.688;23.344;2023-02-20T10:11:45;95960.78;;;13.60;37.14
20027;BME280;10174;42.688;23.344;2023-02-20T10:17:26;95942.75;;;13.03;36.40
20027;BME280;10174;42.688;23.344;2023-02-20T10:20:19;95956.00;;;13.14;37.24
20027;BME280;10174;42.688;23.344;2023-02-20T10:22:52;95937.63;;;14.16;34.40
20027;BME280;10174;42.688;23.344;2023-02-20T10:25:53;95940.56;;;13.73;35.17
20027;BME280;10174;42.688;23.344;2023-02-20T10:28:22;95946.34;;;15.24;32.19
20027;BME280;10174;42.688;23.344;2023-02-20T10:33:40;95948.16;;;14.64;33.11
20027;BME280;10174;42.688;23.344;2023-02-20T10:39:14;95927.75;;;15.07;33.04
20027;BME280;10174;42.688;23.344;2023-02-20T10:42:07;95925.66;;;14.58;32.99
20027;BME280;10174;42.688;23.344;2023-02-20T10:44:39;95935.72;;;14.37;33.43
20027;BME280;10174;42.688;23.344;2023-02-20T10:47:09;95927.00;;;15.52;31.75
20027;BME280;10174;42.688;23.344;2023-02-20T10:52:09;95935.97;;;14.51;33.55
20027;BME280;10174;42.688;23.344;2023-02-20T10:54:40;95934.34;;;14.60;32.76
20027;BME280;10174;42.688;23.344;2023-02-20T11:00:02;95925.69;;;14.68;32.70
20027;BME280;10174;42.688;23.344;2023-02-20T11:02:53;95929.78;;;14.14;33.44
20027;BME280;10174;42.688;23.344;2023-02-20T11:05:24;95945.38;;;14.84;32.22
20027;BME280;10174;42.688;23.344;2023-02-20T11:07:52;95924.84;;;15.48;30.75
20027;BME280;10174;42.688;23.344;2023-02-20T11:10:17;95877.28;;;15.82;30.78
20027;BME280;10174;42.688;23.344;2023-02-20T11:12:51;95917.28;;;14.80;32.84
20027;BME280;10174;42.688;23.344;2023-02-20T11:15:20;95887.16;;;15.02;32.76
20027;BME280;10174;42.688;23.344;2023-02-20T11:17:48;95854.50;;;15.83;31.50
20027;BME280;10174;42.688;23.344;2023-02-20T11:22:56;95903.25;;;14.47;33.84
20027;BME280;10174;42.688;23.344;2023-02-20T11:27:55;95908.44;;;14.13;34.58
20027;BME280;10174;42.688;23.344;2023-02-20T11:30:33;95901.91;;;14.60;33.65
20027;BME280;10174;42.688;23.344;2023-02-20T11:33:10;95887.88;;;14.48;33.62
20027;BME280;10174;42.688;23.344;2023-02-20T11:35:45;95893.84;;;14.08;34.44
20027;BME280;10174;42.688;23.344;2023-02-20T11:41:05;95886.47;;;15.36;32.63
20027;BME280;10174;42.688;23.344;2023-02-20T11:43:40;95880.88;;;14.31;33.89
20027;BME280;10174;42.688;23.344;2023-02-20T11:46:20;95881.94;;;14.30;34.29
20027;BME280;10174;42.688;23.344;2023-02-20T11:48:59;95891.09;;;14.50;34.18
20027;BME280;10174;42.688;23.344;2023-02-20T11:54:13;95888.97;;;13.69;35.02
20027;BME280;10174;42.688;23.344;2023-02-20T12:01:51;95869.13;;;15.42;32.68
20027;BME280;10174;42.688;23.344;2023-02-20T12:04:20;95865.66;;;15.71;31.95
20027;BME280;10174;42.688;23.344;2023-02-20T12:06:46;95842.94;;;16.60;30.11
20027;BME280;10174;42.688;23.344;2023-02-20T12:09:16;95871.16;;;16.83;29.74
20027;BME280;10174;42.688;23.344;2023-02-20T12:11:43;95890.34;;;15.20;31.89
20027;BME280;10174;42.688;23.344;2023-02-20T12:14:13;95868.28;;;14.87;32.53
20027;BME280;10174;42.688;23.344;2023-02-20T12:19:35;95885.78;;;15.15;32.24
20027;BME280;10174;42.688;23.344;2023-02-20T12:22:32;95882.47;;;15.23;32.15
20027;BME280;10174;42.688;23.344;2023-02-20T12:33:56;95872.63;;;14.88;32.87
20027;BME280;10174;42.688;23.344;2023-02-20T12:36:39;95888.28;;;14.96;32.31
20027;BME280;10174;42.688;23.344;2023-02-20T12:44:29;95884.41;;;13.90;34.14
20027;BME280;10174;42.688;23.344;2023-02-20T13:00:46;95866.41;;;15.42;31.84
20027;BME280;10174;42.688;23.344;2023-02-20T13:03:23;95857.34;;;15.57;31.33
20027;BME280;10174;42.688;23.344;2023-02-20T13:05:50;95848.44;;;14.21;33.29
20027;BME280;10174;42.688;23.344;2023-02-20T13:08:26;95872.25;;;14.03;33.66
20027;BME280;10174;42.688;23.344;2023-02-20T13:11:03;95868.97;;;13.40;34.58
20027;BME280;10174;42.688;23.344;2023-02-20T13:16:12;95885.28;;;12.44;36.66
20027;BME280;10174;42.688;23.344;2023-02-20T13:19:04;95888.06;;;12.59;36.79
20027;BME280;10174;42.688;23.344;2023-02-20T13:21:31;95878.91;;;12.60;37.11
20027;BME280;10174;42.688;23.344;2023-02-20T13:26:57;95895.59;;;12.09;37.71
20027;BME280;10174;42.688;23.344;2023-02-20T13:34:42;95877.56;;;11.83;38.68
20027;BME280;10174;42.688;23.344;2023-02-20T13:40:40;95890.78;;;12.17;39.04
20027;BME280;10174;42.688;23.344;2023-02-20T13:46:12;95912.47;;;12.37;38.57
20027;BME280;10174;42.688;23.344;2023-02-20T13:48:44;95917.63;;;12.44;38.53
20027;BME280;10174;42.688;23.344;2023-02-20T13:53:53;95899.06;;;12.05;39.23
20027;BME280;10174;42.688;23.344;2023-02-20T13:56:27;95886.25;;;12.27;38.61
20027;BME280;10174;42.688;23.344;2023-02-20T13:58:56;95898.59;;;12.18;38.83
20027;BME280;10174;42.688;23.344;2023-02-20T14:01:22;95886.41;;;12.10;39.35
20027;BME280;10174;42.688;23.344;2023-02-20T14:04:07;95829.91;;;11.83;38.89
20027;BME280;10174;42.688;23.344;2023-02-20T14:06:33;95890.59;;;12.34;38.65
20027;BME280;10174;42.688;23.344;2023-02-20T14:09:09;95895.50;;;11.99;39.69
20027;BME280;10174;42.688;23.344;2023-02-20T14:11:37;95897.78;;;11.85;39.98
20027;BME280;10174;42.688;23.344;2023-02-20T14:14:07;95877.72;;;11.38;40.71
20027;BME280;10174;42.688;23.344;2023-02-20T14:16:36;95892.72;;;11.62;40.59
20027;BME280;10174;42.688;23.344;2023-02-20T14:19:17;95900.91;;;11.72;40.22
20027;BME280;10174;42.688;23.344;2023-02-20T14:21:44;95902.09;;;11.86;40.33
20027;BME280;10174;42.688;23.344;2023-02-20T14:24:17;95837.88;;;11.68;39.99
20027;BME280;10174;42.688;23.344;2023-02-20T14:26:44;95907.59;;;11.97;40.21
20027;BME280;10174;42.688;23.344;2023-02-20T14:29:26;95921.13;;;12.02;39.96
20027;BME280;10174;42.688;23.344;2023-02-20T14:31:54;95921.75;;;11.87;40.44
20027;BME280;10174;42.688;23.344;2023-02-20T14:34:36;95896.44;;;11.28;41.49
20027;BME280;10174;42.688;23.344;2023-02-20T14:42:33;95925.03;;;11.12;43.05
20027;BME280;10174;42.688;23.344;2023-02-20T14:45:04;95934.13;;;11.06;43.17
20027;BME280;10174;42.688;23.344;2023-02-20T14:47:31;95923.53;;;11.21;42.61
20027;BME280;10174;42.688;23.344;2023-02-20T14:50:16;95917.66;;;11.25;42.80
20027;BME280;10174;42.688;23.344;2023-02-20T14:52:42;95879.28;;;10.85;42.73
20027;BME280;10174;42.688;23.344;2023-02-20T14:55:15;95925.56;;;11.09;42.58
20027;BME280;10174;42.688;23.344;2023-02-20T14:57:41;95837.41;;;10.67;42.63
20027;BME280;10174;42.688;23.344;2023-02-20T15:00:21;95924.66;;;11.26;42.22
20027;BME280;10174;42.688;23.344;2023-02-20T15:02:50;95889.16;;;10.79;42.99
20027;BME280;10174;42.688;23.344;2023-02-20T15:05:30;95942.81;;;11.13;43.39